Pagrindinis puslapis
METAR-TAF:

METAR-TAF

Oro uostai :

Lahr, Vokietija

platuma: 48-22-09N, ilguma: 007-49-40E, Aukštis: 156 m

METAR: trūkstamas

Laikas: 11:29 (09:29 UTC)

Prognozė

Ataskaita buvo paskelbta 19 valandos ir 29 minutes, ne 14:00 UTC
Prognozė galioja nuo 19 metu 15 UTC su 19 metu 24 UTC
Vėjas 13 kt iš Šiaurės/Šiaurės Rytų
Matomumas 10 km arba daugiau
nėra debesų žemiau 1500 m ir nėra kamuolinių lietaus debesų
Tapsmas
nuo 19 metu 16 UTC su 19 metu 18 UTC
Vėjas 6 kt iš Šiaurės/Šiaurės Rytų

TAF: EDTL 191400Z 1915/1924 02013KT CAVOK BECMG 1916/1918 02006KT

Orai ataskaitas ir orų prognozės (METAR, TAF).

turimą stotys yra geltonos ir raudonos taškus žemėlapyje.

Perkelti pele per norėdami pamatyti stoties vardą.

Tada spustelėkite, norėdami matyti oro stebėjimo ir prognozės.

Norėdami pakeisti žemėlapį: spustelėkite ant žalios mygtukų su juodo kryžiaus žemyn,; žalią mygtuką su brūkšneliu, jei norite nutolinti; arba žalių rodyklių gretimoms žemėlapius.


METAR-TAF: